createdAt,value
2018-08-03T00:00:46.536Z,22.70
2018-08-03T00:02:50.321Z,22.80
2018-08-03T00:06:57.495Z,23.30
2018-08-03T00:09:01.477Z,23.60
2018-08-03T00:11:05.484Z,23.70
2018-08-03T00:13:09.398Z,23.80
2018-08-03T00:15:13.200Z,23.70
2018-08-03T00:17:17.006Z,23.60
2018-08-03T00:19:20.824Z,23.30
2018-08-03T00:21:24.659Z,23.20
2018-08-03T00:23:28.527Z,23.00
2018-08-03T00:25:32.333Z,22.70
2018-08-03T00:27:36.089Z,22.50
2018-08-03T00:29:39.897Z,22.30
2018-08-03T00:31:43.653Z,22.30
2018-08-03T00:33:47.424Z,22.20
2018-08-03T00:35:51.313Z,22.20
2018-08-03T00:37:55.100Z,22.30
2018-08-03T00:39:58.853Z,22.70
2018-08-03T00:42:02.660Z,22.90
2018-08-03T00:44:06.453Z,22.90
2018-08-03T00:46:10.258Z,22.90
2018-08-03T00:48:14.055Z,23.00
2018-08-03T00:50:17.850Z,22.80
2018-08-03T00:52:21.618Z,22.60
2018-08-03T00:54:25.423Z,22.40
2018-08-03T00:56:29.310Z,22.20
2018-08-03T00:58:33.145Z,22.00
2018-08-03T01:00:36.931Z,21.80
2018-08-03T01:02:40.743Z,21.70
2018-08-03T01:04:44.544Z,21.60
2018-08-03T01:06:48.288Z,21.60
2018-08-03T01:08:52.062Z,21.50
2018-08-03T01:10:55.899Z,21.80
2018-08-03T01:12:59.774Z,22.10
2018-08-03T01:15:03.639Z,22.40
2018-08-03T01:17:07.690Z,22.60
2018-08-03T01:19:13.291Z,22.60
2018-08-03T01:21:17.169Z,22.70
2018-08-03T01:23:20.963Z,22.60
2018-08-03T01:25:24.722Z,22.50
2018-08-03T01:27:28.469Z,22.30
2018-08-03T01:29:32.253Z,22.10
2018-08-03T01:31:36.104Z,21.90
2018-08-03T01:33:39.973Z,21.80
2018-08-03T01:35:43.762Z,21.60
2018-08-03T01:37:47.556Z,21.50
2018-08-03T01:39:51.648Z,21.40
2018-08-03T01:41:55.454Z,21.30
2018-08-03T01:43:59.352Z,21.40
2018-08-03T01:46:03.126Z,21.60
2018-08-03T01:48:06.937Z,21.90
2018-08-03T01:50:10.693Z,22.10
2018-08-03T01:52:14.521Z,22.00
2018-08-03T01:54:18.283Z,22.30
2018-08-03T01:56:22.036Z,22.10
2018-08-03T01:58:25.855Z,21.90
2018-08-03T02:00:29.694Z,21.70
2018-08-03T02:02:33.447Z,21.50
2018-08-03T02:04:37.225Z,21.40
2018-08-03T02:06:40.987Z,21.20
2018-08-03T02:08:44.738Z,21.00
2018-08-03T02:10:48.512Z,20.90
2018-08-03T02:12:52.253Z,20.80
2018-08-03T02:14:55.995Z,20.70
2018-08-03T02:16:59.795Z,20.90
2018-08-03T02:19:03.656Z,21.10
2018-08-03T02:21:07.413Z,21.40
2018-08-03T02:23:11.190Z,21.60
2018-08-03T02:25:14.968Z,21.70
2018-08-03T02:27:18.752Z,21.70
2018-08-03T02:29:22.530Z,21.60
2018-08-03T02:31:26.298Z,21.50
2018-08-03T02:33:30.051Z,21.20
2018-08-03T02:35:34.068Z,21.00
2018-08-03T02:37:37.887Z,20.80
2018-08-03T02:39:41.640Z,20.60
2018-08-03T02:41:45.377Z,20.50
2018-08-03T02:43:49.175Z,20.40
2018-08-03T02:45:52.977Z,20.30
2018-08-03T02:47:56.733Z,20.20
2018-08-03T02:50:00.526Z,20.20
2018-08-03T02:52:06.773Z,20.50
2018-08-03T02:54:10.550Z,20.90
2018-08-03T02:56:14.334Z,21.20
2018-08-03T02:58:18.090Z,21.20
2018-08-03T03:00:21.869Z,21.30
2018-08-03T03:02:25.787Z,21.20
2018-08-03T03:04:29.766Z,21.10
2018-08-03T03:06:33.898Z,20.90
2018-08-03T03:08:37.949Z,20.70
2018-08-03T03:10:41.737Z,20.50
2018-08-03T03:12:45.511Z,20.40
2018-08-03T03:14:49.570Z,20.20
2018-08-03T03:16:53.371Z,20.10
2018-08-03T03:18:57.237Z,20.00
2018-08-03T03:21:01.024Z,19.90
2018-08-03T03:23:04.809Z,19.90
2018-08-03T03:25:08.588Z,20.10
2018-08-03T03:27:12.435Z,20.30
2018-08-03T03:29:16.294Z,20.80
2018-08-03T03:31:20.183Z,20.90
2018-08-03T03:33:23.996Z,20.90
2018-08-03T03:35:27.861Z,20.90
2018-08-03T03:37:31.730Z,20.70
2018-08-03T03:39:35.542Z,20.60
2018-08-03T03:41:39.381Z,20.40
2018-08-03T03:43:43.160Z,20.20
2018-08-03T03:45:46.981Z,20.00
2018-08-03T03:47:50.732Z,19.90
2018-08-03T03:49:54.620Z,19.80
2018-08-03T03:51:58.404Z,19.70
2018-08-03T03:54:02.173Z,19.70
2018-08-03T03:56:06.359Z,19.60
2018-08-03T03:58:10.337Z,19.80
2018-08-03T04:00:14.658Z,20.10
2018-08-03T04:02:18.512Z,20.30
2018-08-03T04:04:22.302Z,20.50
2018-08-03T04:06:26.095Z,20.80
2018-08-03T04:08:29.944Z,20.70
2018-08-03T04:10:33.735Z,20.60
2018-08-03T04:12:37.537Z,20.40
2018-08-03T04:14:41.473Z,20.20
2018-08-03T04:16:45.449Z,20.00
2018-08-03T04:18:49.241Z,19.90
2018-08-03T04:20:53.461Z,19.90
2018-08-03T04:22:57.267Z,19.80
2018-08-03T04:25:01.050Z,19.70
2018-08-03T04:27:04.891Z,19.60
2018-08-03T04:29:08.706Z,19.60
2018-08-03T04:31:12.647Z,19.80
2018-08-03T04:33:16.605Z,20.00
2018-08-03T04:35:20.626Z,20.40
2018-08-03T04:37:24.432Z,20.60
2018-08-03T04:39:28.444Z,20.70
2018-08-03T04:41:32.506Z,20.90
2018-08-03T04:43:36.421Z,20.90
2018-08-03T04:45:40.333Z,20.70
2018-08-03T04:47:44.167Z,20.60
2018-08-03T04:49:47.955Z,20.50
2018-08-03T04:51:51.853Z,20.40
2018-08-03T04:53:55.689Z,20.40
2018-08-03T04:55:59.491Z,20.40
2018-08-03T04:58:03.304Z,20.30
2018-08-03T05:00:07.100Z,20.30
2018-08-03T05:02:11.425Z,20.30
2018-08-03T05:04:15.254Z,20.40
2018-08-03T05:06:19.021Z,20.80
2018-08-03T05:08:22.804Z,21.30
2018-08-03T05:10:26.635Z,21.60
2018-08-03T05:12:30.432Z,21.90
2018-08-03T05:14:34.200Z,22.10
2018-08-03T05:16:38.097Z,22.20
2018-08-03T05:18:41.887Z,22.10
2018-08-03T05:20:45.737Z,22.10
2018-08-03T05:22:49.552Z,22.20
2018-08-03T05:24:53.707Z,22.30
2018-08-03T05:26:57.734Z,22.40
2018-08-03T05:29:01.609Z,22.60
2018-08-03T05:31:05.418Z,22.70
2018-08-03T05:33:09.245Z,22.80
2018-08-03T05:35:13.101Z,23.00
2018-08-03T05:37:16.891Z,23.20
2018-08-03T05:39:20.704Z,23.50
2018-08-03T05:41:24.491Z,24.00
2018-08-03T05:43:28.297Z,24.30
2018-08-03T05:45:32.200Z,24.60
2018-08-03T05:47:35.986Z,25.00
2018-08-03T05:49:39.767Z,25.10
2018-08-03T05:51:43.590Z,25.30
2018-08-03T05:53:47.367Z,25.40
2018-08-03T05:55:51.126Z,25.40
2018-08-03T05:57:55.144Z,25.60
2018-08-03T05:59:58.908Z,25.70
2018-08-03T06:02:02.722Z,26.00
2018-08-03T06:04:06.629Z,26.10
2018-08-03T06:06:10.490Z,26.50
2018-08-03T06:08:14.305Z,26.70
2018-08-03T06:10:18.180Z,26.90
2018-08-03T06:12:22.003Z,27.30
2018-08-03T06:14:25.856Z,27.80
2018-08-03T06:16:29.749Z,28.20
2018-08-03T06:18:33.564Z,28.80
2018-08-03T06:20:37.425Z,29.70
2018-08-03T06:22:41.586Z,30.00
2018-08-03T06:24:45.408Z,31.00
2018-08-03T06:26:49.237Z,31.80
2018-08-03T06:28:53.065Z,33.60
2018-08-03T06:30:57.092Z,35.30
2018-08-03T06:33:00.886Z,36.60
2018-08-03T06:35:04.750Z,37.80
2018-08-03T06:37:08.734Z,38.60
2018-08-03T06:39:12.905Z,38.60
2018-08-03T06:41:16.697Z,39.60
2018-08-03T06:43:20.495Z,40.70
2018-08-03T06:45:24.309Z,41.00
2018-08-03T06:47:28.075Z,41.70
2018-08-03T06:49:31.876Z,41.60
2018-08-03T06:51:35.710Z,41.90
2018-08-03T06:53:39.523Z,42.30
2018-08-03T06:55:44.304Z,43.30
2018-08-03T06:57:48.130Z,43.10
2018-08-03T06:59:51.915Z,43.40
2018-08-03T07:01:55.735Z,44.00
2018-08-03T07:03:59.591Z,44.90
2018-08-03T07:06:03.339Z,44.80
2018-08-03T07:08:07.239Z,45.00
2018-08-03T07:10:11.278Z,45.10
2018-08-03T07:12:15.255Z,45.70
2018-08-03T07:14:19.034Z,46.70
2018-08-03T07:16:22.850Z,46.60
2018-08-03T07:18:26.808Z,45.30
2018-08-03T07:20:30.820Z,45.20
2018-08-03T07:22:34.561Z,44.70
2018-08-03T07:24:38.393Z,45.30
2018-08-03T07:26:42.503Z,44.40
2018-08-03T07:28:46.294Z,40.10
2018-08-03T07:30:50.082Z,38.20
2018-08-03T07:32:53.871Z,37.10
2018-08-03T07:34:57.729Z,36.00
2018-08-03T07:37:02.174Z,35.40
2018-08-03T07:39:07.794Z,35.40
2018-08-03T07:41:12.227Z,35.00
2018-08-03T07:43:16.203Z,34.90
2018-08-03T07:45:19.894Z,34.50
2018-08-03T07:47:23.719Z,34.40
2018-08-03T07:49:27.471Z,34.50
2018-08-03T07:51:31.326Z,34.60
2018-08-03T07:53:35.240Z,34.50
2018-08-03T07:55:38.979Z,34.70
2018-08-03T07:57:43.032Z,34.60
2018-08-03T07:59:46.830Z,34.40
2018-08-03T08:01:50.589Z,34.30
2018-08-03T08:03:54.848Z,34.60
2018-08-03T08:05:58.838Z,34.80
2018-08-03T08:08:02.755Z,35.10
2018-08-03T08:10:06.618Z,35.00
2018-08-03T08:12:10.358Z,35.00
2018-08-03T08:14:14.133Z,34.50
2018-08-03T08:16:19.159Z,34.90
2018-08-03T08:18:22.961Z,35.20
2018-08-03T08:20:27.606Z,35.50
2018-08-03T08:22:33.722Z,35.50
2018-08-03T08:24:37.621Z,35.50
2018-08-03T08:26:41.648Z,35.70
2018-08-03T08:28:45.511Z,35.80
2018-08-03T08:30:50.092Z,35.90
2018-08-03T08:32:53.981Z,36.00
2018-08-03T08:34:59.190Z,35.50
2018-08-03T08:37:04.594Z,35.80
2018-08-03T08:39:13.082Z,35.80
2018-08-03T08:41:16.915Z,35.70
2018-08-03T08:43:20.765Z,35.70
2018-08-03T08:45:24.794Z,36.20
2018-08-03T08:47:28.762Z,36.20
2018-08-03T08:49:33.152Z,36.50
2018-08-03T08:51:37.255Z,37.20
2018-08-03T08:53:41.254Z,37.10
2018-08-03T08:55:45.553Z,37.40
2018-08-03T08:57:49.984Z,37.40
2018-08-03T08:59:54.133Z,37.70
2018-08-03T09:01:57.923Z,37.90
2018-08-03T09:04:01.702Z,38.00
2018-08-03T09:06:05.709Z,37.90
2018-08-03T09:08:09.451Z,37.20
2018-08-03T09:10:13.276Z,36.90
2018-08-03T09:12:17.027Z,36.80
2018-08-03T09:14:20.831Z,37.10
2018-08-03T09:16:24.653Z,37.10
2018-08-03T09:18:28.614Z,36.20
2018-08-03T09:20:32.422Z,36.20
2018-08-03T09:22:36.268Z,36.10
2018-08-03T09:24:40.116Z,36.90
2018-08-03T09:26:44.111Z,37.20
2018-08-03T09:28:47.927Z,37.30
2018-08-03T09:30:51.723Z,37.90
2018-08-03T09:32:55.665Z,37.60
2018-08-03T09:34:59.463Z,37.30
2018-08-03T09:37:03.347Z,37.10
2018-08-03T09:39:08.584Z,37.70
2018-08-03T09:41:12.458Z,37.40
2018-08-03T09:43:16.221Z,37.30
2018-08-03T09:45:20.068Z,37.20
2018-08-03T09:47:23.883Z,37.70
2018-08-03T09:49:27.782Z,38.20
2018-08-03T09:51:31.773Z,39.00
2018-08-03T09:53:35.779Z,39.30
2018-08-03T09:55:39.583Z,38.60
2018-08-03T09:57:43.532Z,38.10
2018-08-03T09:59:47.305Z,37.80
2018-08-03T10:01:51.366Z,36.70
2018-08-03T10:03:55.178Z,37.30
2018-08-03T10:05:59.002Z,38.00
2018-08-03T10:08:02.936Z,38.50
2018-08-03T10:10:07.194Z,39.00
2018-08-03T10:12:10.983Z,39.20
2018-08-03T10:14:14.768Z,39.20
2018-08-03T10:16:18.647Z,39.40
2018-08-03T10:18:22.470Z,39.70
2018-08-03T10:20:26.229Z,39.80
2018-08-03T10:22:30.033Z,39.70
2018-08-03T10:24:33.800Z,39.60
2018-08-03T10:26:38.860Z,39.50
2018-08-03T10:28:42.790Z,39.20
2018-08-03T10:30:46.548Z,39.00
2018-08-03T10:32:50.351Z,39.60
2018-08-03T10:34:54.133Z,40.00
2018-08-03T10:36:57.938Z,40.00
2018-08-03T10:39:01.828Z,39.90
2018-08-03T10:41:05.621Z,39.80
2018-08-03T10:43:09.489Z,39.70
2018-08-03T10:45:13.288Z,40.10
2018-08-03T10:47:17.024Z,40.20
2018-08-03T10:49:20.946Z,40.30
2018-08-03T10:51:24.794Z,40.10
2018-08-03T10:53:29.499Z,40.10
2018-08-03T10:55:33.301Z,40.30
2018-08-03T10:57:37.090Z,40.90
2018-08-03T10:59:40.915Z,40.90
2018-08-03T11:01:44.780Z,40.80
2018-08-03T11:03:48.569Z,40.50
2018-08-03T11:05:52.471Z,40.60
2018-08-03T11:07:56.361Z,40.20
2018-08-03T11:10:00.145Z,40.10
2018-08-03T11:12:04.414Z,40.40
2018-08-03T11:14:08.294Z,40.40
2018-08-03T11:16:12.084Z,39.60
2018-08-03T11:18:16.185Z,39.20
2018-08-03T11:20:20.061Z,39.10
2018-08-03T11:22:23.888Z,39.00
2018-08-03T11:24:27.741Z,39.50
2018-08-03T11:26:31.522Z,39.50
2018-08-03T11:28:35.351Z,39.60
2018-08-03T11:30:39.110Z,40.30
2018-08-03T11:32:42.859Z,40.40
2018-08-03T11:34:46.645Z,41.00
2018-08-03T11:36:50.461Z,39.80
2018-08-03T11:38:54.263Z,39.50
2018-08-03T11:40:58.167Z,40.40
2018-08-03T11:43:02.516Z,40.70
2018-08-03T11:45:08.070Z,40.70
2018-08-03T11:47:11.889Z,41.00
2018-08-03T11:49:15.784Z,41.20
2018-08-03T11:51:20.549Z,41.00
2018-08-03T11:53:24.348Z,40.60
2018-08-03T11:55:28.301Z,41.20
2018-08-03T11:57:32.177Z,41.50
2018-08-03T11:59:35.958Z,41.70
2018-08-03T12:01:41.309Z,40.60
2018-08-03T12:03:45.687Z,40.10
2018-08-03T12:05:49.995Z,39.50
2018-08-03T12:07:55.592Z,39.90
2018-08-03T12:09:59.362Z,40.40
2018-08-03T12:12:03.222Z,39.50
2018-08-03T12:14:08.324Z,39.70
2018-08-03T12:16:12.283Z,40.00
2018-08-03T12:18:16.076Z,40.00
2018-08-03T12:20:19.886Z,39.80
2018-08-03T12:22:23.711Z,39.90
2018-08-03T12:24:27.492Z,40.00
2018-08-03T12:26:31.237Z,40.20
2018-08-03T12:28:34.968Z,40.00
2018-08-03T12:30:38.780Z,40.10
2018-08-03T12:32:42.642Z,40.20
2018-08-03T12:34:46.450Z,40.10
2018-08-03T12:36:50.199Z,40.20
2018-08-03T12:38:54.903Z,40.20
2018-08-03T12:40:59.899Z,40.20
2018-08-03T12:43:03.739Z,40.30
2018-08-03T12:45:07.733Z,39.60
2018-08-03T12:47:11.601Z,39.60
2018-08-03T12:49:15.391Z,39.20
2018-08-03T12:51:19.237Z,39.00
2018-08-03T12:53:23.072Z,39.10
2018-08-03T12:55:26.863Z,39.00
2018-08-03T12:57:30.708Z,38.90
2018-08-03T12:59:34.563Z,38.40
2018-08-03T13:01:38.387Z,37.90
2018-08-03T13:03:42.289Z,38.60
2018-08-03T13:05:46.173Z,38.70
2018-08-03T13:07:50.532Z,39.20
2018-08-03T13:09:54.242Z,39.50
2018-08-03T13:11:58.023Z,39.00
2018-08-03T13:14:01.832Z,38.90
2018-08-03T13:16:05.859Z,39.20
2018-08-03T13:18:09.813Z,39.10
2018-08-03T13:20:13.649Z,39.00
2018-08-03T13:22:20.933Z,39.00
2018-08-03T13:24:24.789Z,38.90
2018-08-03T13:26:28.791Z,38.90
2018-08-03T13:28:32.632Z,39.00
2018-08-03T13:30:36.426Z,39.20
2018-08-03T13:32:40.252Z,39.30
2018-08-03T13:34:44.025Z,39.00
2018-08-03T13:36:47.824Z,39.10
2018-08-03T13:38:51.993Z,39.00
2018-08-03T13:40:55.772Z,38.80
2018-08-03T13:42:59.643Z,38.90
2018-08-03T13:45:03.700Z,38.90
2018-08-03T13:47:07.507Z,38.60
2018-08-03T13:49:11.397Z,38.90
2018-08-03T13:51:16.329Z,38.80
2018-08-03T13:53:20.178Z,39.00
2018-08-03T13:55:24.065Z,38.90
2018-08-03T13:57:27.902Z,38.60
2018-08-03T13:59:31.666Z,38.50
2018-08-03T14:02:41.102Z,38.60
2018-08-03T14:04:45.018Z,38.70
2018-08-03T14:06:48.857Z,38.70
2018-08-03T14:08:52.679Z,38.80
2018-08-03T14:10:56.462Z,38.70
2018-08-03T14:13:00.270Z,38.60
2018-08-03T14:15:04.238Z,38.20
2018-08-03T14:17:08.260Z,38.10
2018-08-03T14:19:12.088Z,38.10
2018-08-03T14:21:15.947Z,37.70
2018-08-03T14:23:19.927Z,37.40
2018-08-03T14:25:23.827Z,37.30
2018-08-03T14:27:27.616Z,37.60
2018-08-03T14:29:31.520Z,37.70
2018-08-03T14:31:35.517Z,37.80
2018-08-03T14:33:39.279Z,37.60
2018-08-03T14:35:43.217Z,37.70
2018-08-03T14:37:47.085Z,37.70
2018-08-03T14:39:50.882Z,37.80
2018-08-03T14:41:55.091Z,37.70
2018-08-03T14:43:59.202Z,37.70
2018-08-03T14:46:03.097Z,37.60
2018-08-03T14:48:30.103Z,37.70
2018-08-03T14:50:54.222Z,37.60
2018-08-03T14:52:58.029Z,37.50
2018-08-03T14:55:01.874Z,37.40
2018-08-03T14:57:05.906Z,37.20
2018-08-03T14:59:09.775Z,37.20
2018-08-03T15:01:13.573Z,37.10
2018-08-03T15:03:17.631Z,36.90
2018-08-03T15:05:21.469Z,36.70
2018-08-03T15:07:26.633Z,36.90
2018-08-03T15:09:30.407Z,37.00
2018-08-03T15:11:35.194Z,36.90
2018-08-03T15:13:39.166Z,37.00
2018-08-03T15:15:43.196Z,36.60
2018-08-03T15:17:47.082Z,36.70
2018-08-03T15:19:50.867Z,36.80
2018-08-03T15:21:54.703Z,36.60
2018-08-03T15:23:58.627Z,36.50
2018-08-03T15:26:03.484Z,36.50
2018-08-03T15:28:08.495Z,36.50
2018-08-03T15:30:12.882Z,36.60
2018-08-03T15:32:16.744Z,36.50
2018-08-03T15:34:20.801Z,36.40
2018-08-03T15:36:24.814Z,36.30
2018-08-03T15:38:28.683Z,36.20
2018-08-03T15:40:33.579Z,36.20
2018-08-03T15:42:37.396Z,36.30
2018-08-03T15:44:41.304Z,36.30
2018-08-03T15:46:45.137Z,36.10
2018-08-03T15:48:49.100Z,36.10
2018-08-03T15:50:53.118Z,36.00
2018-08-03T15:52:57.111Z,36.10
2018-08-03T15:55:01.917Z,36.00
2018-08-03T15:57:06.428Z,36.00
2018-08-03T15:59:10.302Z,35.90
2018-08-03T16:01:14.459Z,35.70
2018-08-03T16:03:28.478Z,35.70
2018-08-03T16:05:32.335Z,35.80
2018-08-03T16:07:36.139Z,35.70
2018-08-03T16:09:39.973Z,35.60
2018-08-03T16:11:43.725Z,35.40
2018-08-03T16:13:47.484Z,35.30
2018-08-03T16:15:51.349Z,35.40
2018-08-03T16:17:55.142Z,35.30
2018-08-03T16:19:58.970Z,35.20
2018-08-03T16:22:02.755Z,35.20
2018-08-03T16:24:06.660Z,35.10
2018-08-03T16:26:10.654Z,35.30
2018-08-03T16:28:14.743Z,36.50
2018-08-03T16:30:18.909Z,37.00
2018-08-03T16:32:22.745Z,37.20
2018-08-03T16:34:26.582Z,37.40
2018-08-03T16:36:30.657Z,37.50
2018-08-03T16:38:34.809Z,37.50
2018-08-03T16:40:39.071Z,37.50
2018-08-03T16:42:42.908Z,37.40
2018-08-03T16:44:46.970Z,37.30
2018-08-03T23:11:35.007Z,30.60
2018-08-03T23:13:39.051Z,30.00
2018-08-03T23:15:43.065Z,30.00
2018-08-03T23:17:47.220Z,29.30
2018-08-03T23:19:51.261Z,28.40
2018-08-03T23:21:55.251Z,27.70
2018-08-03T23:23:59.341Z,27.60
2018-08-03T23:26:03.529Z,27.20
2018-08-03T23:30:11.999Z,26.60
2018-08-03T23:32:16.013Z,26.70
2018-08-03T23:34:19.975Z,28.20
2018-08-03T23:36:23.894Z,28.30
2018-08-03T23:38:29.110Z,28.90
2018-08-03T23:40:33.224Z,29.40
2018-08-03T23:42:37.392Z,29.70
2018-08-03T23:44:41.733Z,29.90
2018-08-03T23:46:45.887Z,29.70
2018-08-03T23:48:49.842Z,29.20
2018-08-03T23:50:54.199Z,28.60
2018-08-03T23:52:58.297Z,28.00
2018-08-03T23:55:02.810Z,27.50
2018-08-03T23:57:06.929Z,27.00
2018-08-03T23:59:10.887Z,26.40
